createdAt,value
2019-04-14T00:00:41.122Z,1.00
2019-04-14T00:01:32.648Z,1.00
2019-04-14T00:02:29.278Z,1.06
2019-04-14T00:03:17.274Z,1.06
2019-04-14T00:04:05.226Z,1.00
2019-04-14T00:04:44.409Z,1.00
2019-04-14T00:05:18.933Z,1.00
2019-04-14T00:05:56.091Z,1.00
2019-04-14T00:06:30.621Z,1.00
2019-04-14T00:07:03.998Z,0.94
2019-04-14T00:07:37.028Z,0.94
2019-04-14T00:08:11.061Z,0.94
2019-04-14T00:08:44.419Z,0.94
2019-04-14T00:09:20.444Z,0.94
2019-04-14T00:09:54.214Z,0.88
2019-04-14T00:10:27.360Z,0.88
2019-04-14T00:11:01.733Z,0.88
2019-04-14T00:11:40.960Z,0.94
2019-04-14T00:12:14.420Z,0.94
2019-04-14T00:12:47.402Z,0.94
2019-04-14T00:13:21.685Z,0.94
2019-04-14T00:13:54.804Z,0.94
2019-04-14T00:14:29.773Z,0.94
2019-04-14T00:15:05.658Z,0.88
2019-04-14T00:15:43.507Z,0.88
2019-04-14T00:16:14.142Z,0.88
2019-04-14T00:16:47.430Z,0.88
2019-04-14T00:17:21.634Z,0.88
2019-04-14T00:17:54.695Z,0.88
2019-04-14T00:18:27.684Z,0.81
2019-04-14T00:19:02.014Z,0.81
2019-04-14T00:19:36.971Z,0.88
2019-04-14T00:20:10.236Z,0.88
2019-04-14T00:20:44.765Z,0.88
2019-04-14T00:21:17.852Z,0.94
2019-04-14T00:21:52.157Z,0.94
2019-04-14T00:22:28.054Z,0.94
2019-04-14T00:22:59.965Z,0.94
2019-04-14T00:23:32.998Z,0.94
2019-04-14T00:24:07.290Z,0.94
2019-04-14T00:24:42.455Z,0.94
2019-04-14T00:25:15.645Z,0.94
2019-04-14T00:25:48.656Z,0.94
2019-04-14T00:26:27.653Z,0.94
2019-04-14T00:27:01.946Z,0.94
2019-04-14T00:27:35.143Z,0.88
2019-04-14T00:28:09.412Z,0.88
2019-04-14T00:28:42.629Z,0.88
2019-04-14T00:29:15.656Z,0.81
2019-04-14T00:29:48.890Z,0.81
2019-04-14T00:30:23.025Z,0.81
2019-04-14T00:30:56.039Z,0.75
2019-04-14T00:31:29.146Z,0.75
2019-04-14T00:32:03.083Z,0.75
2019-04-14T00:32:44.498Z,0.75
2019-04-14T00:33:19.210Z,0.75
2019-04-14T00:33:54.279Z,0.69
2019-04-14T00:34:46.425Z,0.69
2019-04-14T00:35:39.113Z,0.69
2019-04-14T00:36:21.886Z,0.75
2019-04-14T00:37:27.349Z,0.75
2019-04-14T00:38:15.127Z,0.81
2019-04-14T00:38:50.265Z,0.81
2019-04-14T00:39:29.497Z,0.81
2019-04-14T00:40:12.807Z,0.81
2019-04-14T00:41:00.700Z,0.81
2019-04-14T00:41:48.890Z,0.81
2019-04-14T00:42:40.938Z,0.81
2019-04-14T00:43:28.730Z,0.81
2019-04-14T00:44:27.806Z,0.75
2019-04-14T00:45:15.538Z,0.75
2019-04-14T00:45:57.649Z,0.69
2019-04-14T00:46:38.851Z,0.69
2019-04-14T00:47:16.103Z,0.62
2019-04-14T00:48:01.178Z,0.62
2019-04-14T00:48:29.885Z,0.62
2019-04-14T00:49:03.171Z,0.69
2019-04-14T00:49:36.099Z,0.69
2019-04-14T00:50:10.143Z,0.69
2019-04-14T00:50:43.199Z,0.69
2019-04-14T00:51:17.649Z,0.69
2019-04-14T00:51:50.946Z,0.69
2019-04-14T00:52:25.356Z,0.69
2019-04-14T00:52:58.871Z,0.69
2019-04-14T00:53:31.982Z,0.69
2019-04-14T00:54:05.024Z,0.69
2019-04-14T00:54:39.269Z,0.69
2019-04-14T00:55:12.461Z,0.75
2019-04-14T00:55:46.375Z,0.75
2019-04-14T00:56:19.695Z,0.75
2019-04-14T00:56:52.495Z,0.75
2019-04-14T00:57:25.401Z,0.75
2019-04-14T00:57:59.480Z,0.75
2019-04-14T00:58:34.314Z,0.75
2019-04-14T00:59:07.352Z,0.75
2019-04-14T00:59:40.241Z,0.75
2019-04-14T01:00:16.089Z,0.75
2019-04-14T01:00:50.055Z,0.75
2019-04-14T01:01:24.326Z,0.75
2019-04-14T01:01:57.405Z,0.75
2019-04-14T01:02:30.350Z,0.75
2019-04-14T01:03:04.799Z,0.69
2019-04-14T01:03:37.781Z,0.75
2019-04-14T01:04:10.805Z,0.75
2019-04-14T01:04:44.716Z,0.75
2019-04-14T01:05:17.889Z,0.75
2019-04-14T01:05:50.930Z,0.75
2019-04-14T01:06:24.996Z,0.75
2019-04-14T01:06:58.286Z,0.81
2019-04-14T01:07:32.629Z,0.81
2019-04-14T01:08:05.816Z,0.81
2019-04-14T01:08:38.700Z,0.81
2019-04-14T01:09:13.428Z,0.81
2019-04-14T01:09:46.411Z,0.81
2019-04-14T01:10:19.564Z,0.81
2019-04-14T01:10:52.584Z,0.81
2019-04-14T01:11:25.355Z,0.81
2019-04-14T01:11:59.506Z,0.81
2019-04-14T01:12:32.577Z,0.81
2019-04-14T01:13:08.440Z,0.81
2019-04-14T01:13:40.472Z,0.81
2019-04-14T01:14:14.802Z,0.81
2019-04-14T01:14:47.831Z,0.75
2019-04-14T01:15:20.752Z,0.75
2019-04-14T01:16:00.516Z,0.81
2019-04-14T01:16:29.718Z,0.81
2019-04-14T01:17:02.888Z,0.81
2019-04-14T01:17:35.810Z,0.81
2019-04-14T01:18:12.457Z,0.81
2019-04-14T01:18:45.687Z,0.75
2019-04-14T01:19:19.908Z,0.81
2019-04-14T01:19:52.822Z,0.81
2019-04-14T01:20:25.959Z,0.75
2019-04-14T01:20:58.747Z,0.75
2019-04-14T01:21:32.713Z,0.75
2019-04-14T01:22:05.887Z,0.75
2019-04-14T01:22:40.113Z,0.75
2019-04-14T01:23:13.223Z,0.75
2019-04-14T01:23:48.045Z,0.69
2019-04-14T01:24:20.923Z,0.69
2019-04-14T01:24:53.927Z,0.62
2019-04-14T01:25:28.110Z,0.62
2019-04-14T01:26:01.161Z,0.62
2019-04-14T01:26:34.091Z,0.62
2019-04-14T01:27:08.030Z,0.56
2019-04-14T01:27:41.211Z,0.56
2019-04-14T01:28:14.217Z,0.56
2019-04-14T01:28:48.316Z,0.50
2019-04-14T01:29:21.300Z,0.50
2019-04-14T01:29:54.189Z,0.50
2019-04-14T01:30:28.329Z,0.50
2019-04-14T01:31:01.520Z,0.50
2019-04-14T01:31:34.423Z,0.44
2019-04-14T01:32:08.705Z,0.44
2019-04-14T01:32:41.871Z,0.44
2019-04-14T01:33:14.698Z,0.44
2019-04-14T01:33:47.619Z,0.44
2019-04-14T01:34:21.625Z,0.44
2019-04-14T01:34:55.953Z,0.44
2019-04-14T01:35:29.803Z,0.44
2019-04-14T01:36:03.923Z,0.44
2019-04-14T01:36:36.920Z,0.50
2019-04-14T01:37:09.976Z,0.44
2019-04-14T01:37:44.027Z,0.44
2019-04-14T01:38:19.034Z,0.44
2019-04-14T01:38:53.497Z,0.44
2019-04-14T01:39:26.804Z,0.44
2019-04-14T01:40:00.914Z,0.44
2019-04-14T01:40:34.185Z,0.50
2019-04-14T01:41:08.451Z,0.50
2019-04-14T01:41:41.639Z,0.50
2019-04-14T01:42:15.864Z,0.50
2019-04-14T01:42:48.914Z,0.50
2019-04-14T01:43:21.982Z,0.56
2019-04-14T01:43:56.123Z,0.56
2019-04-14T01:44:29.049Z,0.56
2019-04-14T01:45:03.519Z,0.56
2019-04-14T01:45:36.743Z,0.62
2019-04-14T01:46:16.577Z,0.62
2019-04-14T01:46:45.589Z,0.56
2019-04-14T01:47:18.644Z,0.62
2019-04-14T01:47:51.595Z,0.62
2019-04-14T01:48:25.730Z,0.69
2019-04-14T01:49:00.706Z,0.69
2019-04-14T01:49:35.427Z,0.69
2019-04-14T01:50:08.684Z,0.69
2019-04-14T01:51:00.564Z,0.69
2019-04-14T01:51:57.108Z,0.69
2019-04-14T01:52:50.175Z,0.75
2019-04-14T01:53:40.146Z,0.75
2019-04-14T01:54:36.430Z,0.75
2019-04-14T01:55:28.790Z,0.75
2019-04-14T01:56:16.541Z,0.75
2019-04-14T01:56:58.771Z,0.75
2019-04-14T01:57:48.316Z,0.75
2019-04-14T01:58:27.174Z,0.75
2019-04-14T01:59:02.208Z,0.75
2019-04-14T01:59:35.297Z,0.75
2019-04-14T02:00:40.993Z,0.75
2019-04-14T02:01:19.513Z,0.75
2019-04-14T02:01:54.297Z,0.75
2019-04-14T02:02:27.737Z,0.75
2019-04-14T02:03:01.868Z,0.75
2019-04-14T02:03:34.859Z,0.75
2019-04-14T02:04:07.953Z,0.75
2019-04-14T02:04:42.063Z,0.75
2019-04-14T02:05:15.057Z,0.75
2019-04-14T02:05:48.153Z,0.75
2019-04-14T02:06:22.334Z,0.75
2019-04-14T02:06:57.371Z,0.75
2019-04-14T02:07:30.447Z,0.75
2019-04-14T02:08:04.458Z,0.75
2019-04-14T02:08:37.742Z,0.75
2019-04-14T02:09:12.049Z,0.75
2019-04-14T02:09:46.740Z,0.75
2019-04-14T02:10:19.928Z,0.75
2019-04-14T02:10:52.912Z,0.75
2019-04-14T02:11:26.977Z,0.75
2019-04-14T02:12:00.152Z,0.81
2019-04-14T02:12:33.084Z,0.75
2019-04-14T02:13:07.156Z,0.81
2019-04-14T02:13:40.499Z,0.75
2019-04-14T02:14:14.677Z,0.81
2019-04-14T02:14:47.802Z,0.81
2019-04-14T02:15:20.699Z,0.81
2019-04-14T02:15:54.746Z,0.81
2019-04-14T02:16:34.824Z,0.81
2019-04-14T02:17:04.485Z,0.81
2019-04-14T02:17:39.144Z,0.88
2019-04-14T02:18:12.270Z,0.88
2019-04-14T02:18:45.387Z,0.88
2019-04-14T02:19:19.789Z,0.88
2019-04-14T02:19:52.853Z,0.88
2019-04-14T02:20:27.144Z,0.88
2019-04-14T02:21:00.354Z,0.88
2019-04-14T02:21:34.447Z,0.94
2019-04-14T02:22:07.611Z,0.88
2019-04-14T02:22:41.899Z,0.88
2019-04-14T02:23:14.909Z,0.81
2019-04-14T02:23:47.742Z,0.88
2019-04-14T02:24:21.991Z,0.88
2019-04-14T02:24:55.147Z,0.88
2019-04-14T02:25:29.485Z,0.88
2019-04-14T02:26:03.136Z,0.88
2019-04-14T02:26:37.318Z,0.88
2019-04-14T02:27:10.366Z,0.88
2019-04-14T02:27:43.394Z,0.88
2019-04-14T02:28:17.643Z,0.81
2019-04-14T02:28:52.876Z,0.81
2019-04-14T02:29:25.822Z,0.81
2019-04-14T02:30:00.184Z,0.75
2019-04-14T02:30:41.704Z,0.75
2019-04-14T02:31:24.640Z,0.75
2019-04-14T02:32:09.564Z,0.75
2019-04-14T02:33:26.102Z,0.69
2019-04-14T02:33:50.568Z,0.69
2019-04-14T02:34:34.333Z,0.75
2019-04-14T02:35:02.160Z,0.75
2019-04-14T02:36:21.910Z,0.75
2019-04-14T02:37:05.119Z,0.75
2019-04-14T02:38:05.637Z,0.75
2019-04-14T02:39:15.564Z,0.75
2019-04-14T02:39:50.877Z,0.75
2019-04-14T02:40:34.784Z,0.75
2019-04-14T02:41:18.890Z,0.81
2019-04-14T02:41:40.895Z,0.75
2019-04-14T02:42:28.353Z,0.75
2019-04-14T02:42:42.402Z,0.75
2019-04-14T02:43:23.681Z,0.75
2019-04-14T02:44:34.297Z,0.75
2019-04-14T02:44:59.861Z,0.75
2019-04-14T02:45:44.910Z,0.75
2019-04-14T02:49:04.679Z,0.75
2019-04-14T02:49:44.248Z,0.75
2019-04-14T02:50:14.212Z,0.75
2019-04-14T02:50:49.578Z,0.75
2019-04-14T02:51:27.564Z,0.69
2019-04-14T02:51:58.318Z,0.69
2019-04-14T02:52:35.319Z,0.69
2019-04-14T02:53:18.044Z,0.69
2019-04-14T02:53:49.794Z,0.69
2019-04-14T02:54:32.931Z,0.62
2019-04-14T02:54:59.964Z,0.62
2019-04-14T02:55:31.921Z,0.62
2019-04-14T02:56:43.671Z,0.62
2019-04-14T02:57:30.605Z,0.62
2019-04-14T02:57:52.103Z,0.56
2019-04-14T02:58:45.935Z,0.56
2019-04-14T02:59:05.632Z,0.62
2019-04-14T02:59:45.067Z,0.62
2019-04-14T03:00:16.754Z,0.56
2019-04-14T03:00:47.909Z,0.62
2019-04-14T03:03:10.879Z,0.62
2019-04-14T03:03:43.716Z,0.69
2019-04-14T03:04:19.699Z,0.69
2019-04-14T03:05:05.986Z,0.69
2019-04-14T03:05:26.941Z,0.69
2019-04-14T03:06:33.534Z,0.69
2019-04-14T03:07:16.525Z,0.69
2019-04-14T03:08:25.752Z,0.69
2019-04-14T03:09:16.345Z,0.69
2019-04-14T03:10:16.326Z,0.69
2019-04-14T03:11:03.991Z,0.69
2019-04-14T03:11:17.467Z,0.69
2019-04-14T03:11:51.333Z,0.69
2019-04-14T03:13:09.083Z,0.69
2019-04-14T03:13:45.022Z,0.69
2019-04-14T03:14:15.553Z,0.69
2019-04-14T03:14:53.630Z,0.69
2019-04-14T03:15:27.914Z,0.69
2019-04-14T03:16:02.264Z,0.69
2019-04-14T03:17:11.155Z,0.69
2019-04-14T03:17:58.492Z,0.69
2019-04-14T03:18:53.800Z,0.69
2019-04-14T03:20:09.428Z,0.62
2019-04-14T03:22:07.246Z,0.56
2019-04-14T03:23:26.877Z,0.50
2019-04-14T03:24:07.211Z,0.50
2019-04-14T03:24:42.082Z,0.50
2019-04-14T03:25:31.821Z,0.50
2019-04-14T03:26:49.381Z,0.44
2019-04-14T03:27:48.225Z,0.44
2019-04-14T03:28:40.261Z,0.44
2019-04-14T03:29:12.836Z,0.44
2019-04-14T03:29:43.260Z,0.50
2019-04-14T03:30:58.877Z,0.50
2019-04-14T03:32:55.933Z,0.50
2019-04-14T03:33:32.192Z,0.50
2019-04-14T03:34:30.312Z,0.56
2019-04-14T03:36:16.866Z,0.50
2019-04-14T03:37:33.097Z,0.44
2019-04-14T03:38:18.556Z,0.44
2019-04-14T03:39:33.419Z,0.37
2019-04-14T03:39:57.286Z,0.37
2019-04-14T03:41:17.211Z,0.31
2019-04-14T03:41:48.880Z,0.31
2019-04-14T03:42:29.387Z,0.31
2019-04-14T03:43:03.148Z,0.31
2019-04-14T03:43:30.292Z,0.31
2019-04-14T03:44:01.262Z,0.25
2019-04-14T03:44:41.988Z,0.25
2019-04-14T03:45:32.451Z,0.25
2019-04-14T03:46:11.827Z,0.25
2019-04-14T03:46:45.191Z,0.19
2019-04-14T03:47:30.701Z,0.19
2019-04-14T03:49:24.874Z,0.19
2019-04-14T03:50:00.931Z,0.19
2019-04-14T03:51:13.648Z,0.13
2019-04-14T03:52:55.781Z,0.06
2019-04-14T03:53:59.005Z,0.06
2019-04-14T03:54:36.627Z,0.06
2019-04-14T03:55:02.683Z,0.06
2019-04-14T03:56:19.340Z,0.06
2019-04-14T03:56:53.915Z,0.00
2019-04-14T03:57:28.562Z,0.00
2019-04-14T03:58:01.531Z,-0.06
2019-04-14T03:58:35.775Z,-0.06
2019-04-14T03:59:08.900Z,-0.06
2019-04-14T03:59:41.905Z,-0.13
2019-04-14T04:00:15.902Z,-0.13
2019-04-14T04:00:49.248Z,-0.13
2019-04-14T04:01:23.664Z,-0.13
2019-04-14T04:01:56.767Z,-0.13
2019-04-14T04:02:29.793Z,-0.19
2019-04-14T04:03:03.918Z,-0.19
2019-04-14T04:03:36.909Z,-0.19
2019-04-14T04:04:09.918Z,-0.13
2019-04-14T04:04:42.713Z,-0.13
2019-04-14T04:05:15.602Z,-0.13
2019-04-14T04:05:49.878Z,-0.13
2019-04-14T04:06:23.037Z,-0.13
2019-04-14T04:06:57.357Z,-0.13
2019-04-14T04:07:30.347Z,-0.13
2019-04-14T04:08:03.380Z,-0.13
2019-04-14T04:08:36.254Z,-0.13
2019-04-14T04:09:10.358Z,-0.06
2019-04-14T04:09:49.659Z,-0.06
2019-04-14T04:10:22.650Z,-0.06
2019-04-14T04:10:55.681Z,0.00
2019-04-14T04:11:28.591Z,0.00
2019-04-14T04:12:01.509Z,0.00
2019-04-14T04:12:35.658Z,0.00
2019-04-14T04:13:08.742Z,0.00
2019-04-14T04:13:41.808Z,0.00
2019-04-14T04:14:15.905Z,0.00
2019-04-14T04:14:48.950Z,0.00
2019-04-14T04:15:23.450Z,0.00
2019-04-14T04:16:11.556Z,0.00
2019-04-14T04:16:55.651Z,0.00
2019-04-14T04:17:53.897Z,0.00
2019-04-14T04:18:28.663Z,-0.06
2019-04-14T04:19:13.996Z,0.00
2019-04-14T04:20:08.951Z,0.00
2019-04-14T04:21:05.260Z,0.00
2019-04-14T04:21:55.231Z,0.00
2019-04-14T04:22:41.974Z,0.00
2019-04-14T04:23:31.157Z,0.00
2019-04-14T04:24:23.906Z,0.00
2019-04-14T04:25:16.734Z,0.00
2019-04-14T04:26:01.751Z,0.00
2019-04-14T04:26:42.853Z,0.00
2019-04-14T04:27:26.597Z,-0.06
2019-04-14T04:28:18.854Z,-0.06
2019-04-14T04:29:04.928Z,-0.06
2019-04-14T04:29:55.236Z,-0.06
2019-04-14T04:30:42.673Z,-0.06
2019-04-14T04:31:30.705Z,-0.06
2019-04-14T04:32:23.083Z,-0.13
2019-04-14T04:33:10.704Z,-0.06
2019-04-14T04:34:03.309Z,-0.06
2019-04-14T04:34:55.579Z,0.00
2019-04-14T04:35:41.522Z,0.00
2019-04-14T04:36:20.503Z,0.00
2019-04-14T04:37:22.045Z,0.06
2019-04-14T04:38:07.493Z,0.06
2019-04-14T04:38:48.826Z,0.06
2019-04-14T04:39:25.828Z,0.06
2019-04-14T04:40:02.976Z,0.06
2019-04-14T04:40:36.121Z,0.06
2019-04-14T04:41:10.156Z,0.06
2019-04-14T04:41:43.343Z,0.06
2019-04-14T04:42:16.137Z,0.06
2019-04-14T04:42:49.077Z,0.06
2019-04-14T04:43:23.255Z,0.06
2019-04-14T04:43:56.230Z,0.06
2019-04-14T04:44:29.166Z,0.06
2019-04-14T04:45:03.862Z,0.00
2019-04-14T04:45:38.692Z,0.00
2019-04-14T04:46:13.407Z,0.00
2019-04-14T04:46:46.421Z,-0.06
2019-04-14T04:47:19.327Z,-0.06
2019-04-14T04:47:53.402Z,0.00
2019-04-14T04:48:26.494Z,0.00
2019-04-14T04:49:09.091Z,0.00
2019-04-14T04:49:34.228Z,-0.06
2019-04-14T04:50:08.525Z,-0.06
2019-04-14T04:50:41.616Z,-0.06
2019-04-14T04:51:14.605Z,-0.06
2019-04-14T04:51:48.696Z,-0.06
2019-04-14T04:52:21.857Z,-0.06
2019-04-14T04:52:56.086Z,-0.06
2019-04-14T04:53:29.527Z,-0.06
2019-04-14T04:54:03.765Z,-0.06
2019-04-14T04:54:36.861Z,-0.06
2019-04-14T04:55:11.196Z,-0.13
2019-04-14T04:55:44.339Z,-0.13
2019-04-14T04:56:17.327Z,-0.13
2019-04-14T04:56:51.514Z,-0.13
2019-04-14T04:57:24.588Z,-0.13
2019-04-14T04:57:59.052Z,-0.13
2019-04-14T04:58:32.739Z,-0.13
2019-04-14T04:59:05.910Z,-0.06
2019-04-14T04:59:38.860Z,-0.06
2019-04-14T05:00:13.371Z,-0.06
2019-04-14T05:00:48.545Z,-0.06
2019-04-14T05:01:21.728Z,-0.13
2019-04-14T05:01:56.264Z,-0.13
2019-04-14T05:02:29.313Z,-0.06
2019-04-14T05:03:03.585Z,-0.06
2019-04-14T05:03:36.665Z,-0.06
2019-04-14T05:04:09.664Z,-0.06
2019-04-14T05:04:43.731Z,-0.06
2019-04-14T05:06:06.953Z,-0.06
2019-04-14T05:07:05.681Z,-0.06
2019-04-14T05:07:38.705Z,-0.06
2019-04-14T05:08:13.010Z,-0.06
2019-04-14T05:08:50.601Z,-0.06
2019-04-14T05:09:39.082Z,-0.06
2019-04-14T05:10:22.349Z,-0.06
2019-04-14T05:11:01.110Z,0.00
2019-04-14T05:11:40.405Z,0.00
2019-04-14T05:12:33.188Z,0.00
2019-04-14T05:13:20.614Z,0.06
2019-04-14T05:13:55.355Z,0.06
2019-04-14T05:14:39.026Z,0.13
2019-04-14T05:15:31.874Z,0.06
2019-04-14T05:16:06.332Z,0.13
2019-04-14T05:16:39.861Z,0.13
2019-04-14T05:17:13.182Z,0.13
2019-04-14T05:17:47.295Z,0.13
2019-04-14T05:18:24.861Z,0.13
2019-04-14T05:19:11.428Z,0.13
2019-04-14T05:19:36.006Z,0.13
2019-04-14T05:20:07.695Z,0.19
2019-04-14T05:20:40.631Z,0.19
2019-04-14T05:21:14.836Z,0.13
2019-04-14T05:21:47.858Z,0.13
2019-04-14T05:22:22.060Z,0.13
2019-04-14T05:22:55.674Z,0.19
2019-04-14T05:23:29.824Z,0.19
2019-04-14T05:24:03.139Z,0.19
2019-04-14T05:24:37.549Z,0.25
2019-04-14T05:25:10.590Z,0.25
2019-04-14T05:25:45.114Z,0.25
2019-04-14T05:26:18.235Z,0.31
2019-04-14T05:26:51.092Z,0.31
2019-04-14T05:27:25.328Z,0.31
2019-04-14T05:28:00.418Z,0.37
2019-04-14T05:28:33.601Z,0.37
2019-04-14T05:29:10.013Z,0.37
2019-04-14T05:29:43.107Z,0.44
2019-04-14T05:30:16.121Z,0.44
2019-04-14T05:30:50.270Z,0.44
2019-04-14T05:31:26.259Z,0.44
2019-04-14T05:31:58.273Z,0.44
2019-04-14T05:32:32.577Z,0.44
2019-04-14T05:33:05.599Z,0.50
2019-04-14T05:33:38.438Z,0.56
2019-04-14T05:34:11.255Z,0.56
2019-04-14T05:34:44.065Z,0.56
2019-04-14T05:35:17.047Z,0.56
2019-04-14T05:35:50.947Z,0.56
2019-04-14T05:36:23.876Z,0.62
2019-04-14T05:36:56.813Z,0.62
2019-04-14T05:37:29.727Z,0.62
2019-04-14T05:38:03.755Z,0.62
2019-04-14T05:38:37.051Z,0.62
2019-04-14T05:39:09.855Z,0.62
2019-04-14T05:39:43.949Z,0.62
2019-04-14T05:40:17.065Z,0.62
2019-04-14T05:40:51.834Z,0.69
2019-04-14T05:41:25.123Z,0.69
2019-04-14T05:42:07.680Z,0.69
2019-04-14T05:42:34.107Z,0.69
2019-04-14T05:43:07.051Z,0.69
2019-04-14T05:43:48.759Z,0.69
2019-04-14T05:44:16.600Z,0.75
2019-04-14T05:44:49.508Z,0.75
2019-04-14T05:45:22.609Z,0.75
2019-04-14T05:45:56.574Z,0.75
2019-04-14T05:46:29.741Z,0.75
2019-04-14T05:47:02.630Z,0.81
2019-04-14T05:47:35.728Z,0.81
2019-04-14T05:48:09.748Z,0.81
2019-04-14T05:48:44.638Z,0.88
2019-04-14T05:49:28.639Z,0.94
2019-04-14T05:49:54.964Z,0.94
2019-04-14T05:50:27.274Z,1.00
2019-04-14T05:51:00.391Z,1.00
2019-04-14T05:51:33.470Z,1.00
2019-04-14T05:52:07.648Z,1.06
2019-04-14T05:52:41.023Z,1.06
2019-04-14T05:53:15.310Z,1.12
2019-04-14T05:53:48.495Z,1.12
2019-04-14T05:54:21.542Z,1.12
2019-04-14T05:54:55.705Z,1.19
2019-04-14T05:55:28.763Z,1.19
2019-04-14T05:56:01.756Z,1.25
2019-04-14T05:56:37.241Z,1.25
2019-04-14T05:57:11.133Z,1.25
2019-04-14T05:57:44.241Z,1.31
2019-04-14T05:58:18.585Z,1.31
2019-04-14T05:58:51.996Z,1.37
2019-04-14T05:59:24.919Z,1.37
2019-04-14T05:59:59.420Z,1.37
2019-04-14T06:00:32.746Z,1.37
2019-04-14T06:01:06.927Z,1.44
2019-04-14T06:01:40.089Z,1.44
2019-04-14T06:02:13.692Z,1.44
2019-04-14T06:02:48.607Z,1.50
2019-04-14T06:03:21.671Z,1.50
2019-04-14T06:03:54.635Z,1.50
2019-04-14T06:04:28.519Z,1.56
2019-04-14T06:05:01.727Z,1.56
2019-04-14T06:05:36.184Z,1.56
2019-04-14T06:06:09.419Z,1.56
2019-04-14T06:06:42.462Z,1.62
2019-04-14T06:07:15.382Z,1.62
2019-04-14T06:07:48.417Z,1.69
2019-04-14T06:08:21.488Z,1.69
2019-04-14T06:08:54.322Z,1.69
2019-04-14T06:09:27.783Z,1.69
2019-04-14T06:10:03.732Z,1.75
2019-04-14T06:10:36.913Z,1.75
2019-04-14T06:11:09.917Z,1.75
2019-04-14T06:11:42.892Z,1.81
2019-04-14T06:12:15.933Z,1.81
2019-04-14T06:12:48.935Z,1.81
2019-04-14T06:13:21.897Z,1.87
2019-04-14T06:13:56.292Z,1.87
2019-04-14T06:14:29.465Z,1.87
2019-04-14T06:15:02.648Z,1.94
2019-04-14T06:15:35.721Z,1.94
2019-04-14T06:16:08.863Z,1.94
2019-04-14T06:16:42.002Z,2.00
2019-04-14T06:17:15.085Z,2.00
2019-04-14T06:17:48.257Z,2.00
2019-04-14T06:18:21.354Z,2.00
2019-04-14T06:18:54.337Z,2.06
2019-04-14T06:19:36.386Z,2.06
2019-04-14T06:20:02.799Z,2.06
2019-04-14T06:20:35.686Z,2.06
2019-04-14T06:21:18.215Z,2.12
2019-04-14T06:21:51.204Z,2.12
2019-04-14T06:22:24.269Z,2.12
2019-04-14T06:22:57.202Z,2.19
2019-04-14T06:23:30.278Z,2.19
2019-04-14T06:24:03.449Z,2.19
2019-04-14T06:24:36.850Z,2.19
2019-04-14T06:25:10.014Z,2.25
2019-04-14T06:25:43.117Z,2.25
2019-04-14T06:26:16.082Z,2.31
2019-04-14T06:26:49.444Z,2.31
2019-04-14T06:27:24.037Z,2.31
2019-04-14T06:27:57.092Z,2.31
2019-04-14T06:28:30.323Z,2.31
2019-04-14T06:29:03.563Z,2.37
2019-04-14T06:29:36.621Z,2.37
2019-04-14T06:30:33.260Z,2.37
2019-04-14T06:31:24.614Z,2.44
2019-04-14T06:32:17.181Z,2.44
2019-04-14T06:32:50.579Z,2.44
2019-04-14T06:33:35.263Z,2.50
2019-04-14T06:34:23.885Z,2.56
2019-04-14T06:35:32.014Z,2.56
2019-04-14T06:36:19.391Z,2.62
2019-04-14T06:38:05.552Z,2.69
2019-04-14T06:38:41.199Z,2.69
2019-04-14T06:39:18.307Z,2.75
2019-04-14T06:39:51.997Z,2.75
2019-04-14T06:40:26.992Z,2.75
2019-04-14T06:41:04.985Z,2.81
2019-04-14T06:41:38.141Z,2.81
2019-04-14T06:42:11.085Z,2.87
2019-04-14T06:42:44.012Z,2.87
2019-04-14T06:43:17.189Z,2.94
2019-04-14T06:43:50.140Z,3.00
2019-04-14T06:44:23.237Z,3.00
2019-04-14T06:44:56.205Z,3.06
2019-04-14T06:45:29.123Z,3.06
2019-04-14T06:46:02.152Z,3.12
2019-04-14T06:46:35.160Z,3.12
2019-04-14T06:47:08.105Z,3.12
2019-04-14T06:47:41.013Z,3.12
2019-04-14T06:48:13.995Z,3.19
2019-04-14T06:48:46.799Z,3.19
2019-04-14T06:49:19.845Z,3.25
2019-04-14T06:49:52.879Z,3.25
2019-04-14T06:50:25.856Z,3.31
2019-04-14T06:50:58.865Z,3.31
2019-04-14T06:51:32.229Z,3.37
2019-04-14T06:52:05.355Z,3.37
2019-04-14T06:52:38.411Z,3.31
2019-04-14T06:53:11.318Z,3.31
2019-04-14T06:53:44.271Z,3.37
2019-04-14T06:54:17.181Z,3.37
2019-04-14T06:54:50.373Z,3.37
2019-04-14T06:55:24.813Z,3.37
2019-04-14T06:55:57.853Z,3.44
2019-04-14T06:56:30.759Z,3.44
2019-04-14T06:57:03.906Z,3.50
2019-04-14T06:57:36.699Z,3.50
2019-04-14T06:58:09.650Z,3.50
2019-04-14T06:58:42.635Z,3.56
2019-04-14T06:59:15.671Z,3.56
2019-04-14T06:59:48.781Z,3.62
2019-04-14T07:00:21.854Z,3.62
2019-04-14T07:00:54.779Z,3.62
2019-04-14T07:01:27.942Z,3.56
2019-04-14T07:02:01.935Z,3.56
2019-04-14T07:02:35.099Z,3.62
2019-04-14T07:03:07.990Z,3.62
2019-04-14T07:03:41.243Z,3.62
2019-04-14T07:04:14.151Z,3.62
2019-04-14T07:04:47.157Z,3.62
2019-04-14T07:05:20.137Z,3.62
2019-04-14T07:05:53.227Z,3.69
2019-04-14T07:06:26.250Z,3.69
2019-04-14T07:06:59.212Z,3.69
2019-04-14T07:07:32.097Z,3.69
2019-04-14T07:08:05.077Z,3.75
2019-04-14T07:08:37.989Z,3.75
2019-04-14T07:09:11.045Z,3.81
2019-04-14T07:09:44.054Z,3.81
2019-04-14T07:10:17.042Z,3.81
2019-04-14T07:10:49.927Z,3.81
2019-04-14T07:11:22.863Z,3.81
2019-04-14T07:11:55.951Z,3.87
2019-04-14T07:12:29.018Z,3.94
2019-04-14T07:13:01.820Z,4.00
2019-04-14T07:13:35.151Z,4.00
2019-04-14T07:14:08.147Z,4.12
2019-04-14T07:14:41.184Z,4.12
2019-04-14T07:15:14.243Z,4.19
2019-04-14T07:15:47.380Z,4.19
2019-04-14T07:16:20.158Z,4.19
2019-04-14T07:16:53.007Z,4.19
2019-04-14T07:17:26.051Z,4.19
2019-04-14T07:17:59.098Z,4.19
2019-04-14T07:18:33.085Z,4.25
2019-04-14T07:19:06.236Z,4.25
2019-04-14T07:19:39.239Z,4.31
2019-04-14T07:20:12.441Z,4.31
2019-04-14T07:20:45.549Z,4.37
2019-04-14T07:21:18.532Z,4.37
2019-04-14T07:21:52.675Z,4.44
2019-04-14T07:22:25.695Z,4.44
2019-04-14T07:22:58.629Z,4.50
2019-04-14T07:23:31.714Z,4.56
2019-04-14T07:24:04.712Z,4.62
2019-04-14T07:24:37.810Z,4.62
2019-04-14T07:25:12.040Z,4.69
2019-04-14T07:25:45.011Z,4.75
2019-04-14T07:26:19.090Z,4.87
2019-04-14T07:26:52.178Z,4.94
2019-04-14T07:27:25.071Z,5.00
2019-04-14T07:27:58.117Z,5.19
2019-04-14T07:28:32.800Z,5.50
2019-04-14T07:29:05.841Z,5.75
2019-04-14T07:29:46.269Z,6.06
2019-04-14T07:30:39.372Z,6.44
2019-04-14T07:31:38.109Z,6.81
2019-04-14T07:32:25.765Z,7.06
2019-04-14T07:33:20.919Z,7.19
2019-04-14T07:34:13.677Z,7.25
2019-04-14T07:35:11.829Z,6.94
2019-04-14T07:36:04.503Z,6.81
2019-04-14T07:37:09.503Z,7.12
2019-04-14T07:37:49.198Z,7.50
2019-04-14T07:38:36.454Z,7.50
2019-04-14T07:39:47.629Z,7.44
2019-04-14T07:40:43.182Z,7.75
2019-04-14T07:41:39.006Z,7.94
2019-04-14T07:42:31.523Z,8.06
2019-04-14T07:43:39.597Z,8.25
2019-04-14T07:44:31.413Z,8.44
2019-04-14T07:45:24.693Z,8.63
2019-04-14T07:46:08.591Z,8.50
2019-04-14T07:46:53.268Z,8.50
2019-04-14T07:47:40.147Z,8.56
2019-04-14T07:48:26.654Z,8.63
2019-04-14T07:49:15.671Z,8.63
2019-04-14T07:50:14.609Z,8.75
2019-04-14T07:50:53.783Z,8.75
2019-04-14T07:51:55.674Z,8.75
2019-04-14T07:52:45.867Z,8.63
2019-04-14T07:53:33.107Z,8.38
2019-04-14T07:54:24.719Z,8.06
2019-04-14T07:55:19.698Z,7.81
2019-04-14T07:56:27.377Z,7.56
2019-04-14T07:57:19.101Z,7.31
2019-04-14T07:58:01.127Z,7.12
2019-04-14T07:58:53.819Z,7.12
2019-04-14T07:59:47.279Z,7.00
2019-04-14T08:00:31.025Z,6.94
2019-04-14T08:01:09.551Z,6.94
2019-04-14T08:02:08.471Z,7.00
2019-04-14T08:03:06.923Z,6.94
2019-04-14T08:03:59.587Z,6.87
2019-04-14T08:04:35.558Z,6.81
2019-04-14T08:05:12.517Z,6.75
2019-04-14T08:05:46.581Z,6.69
2019-04-14T08:06:19.619Z,6.62
2019-04-14T08:06:56.463Z,6.62
2019-04-14T08:07:29.471Z,6.69
2019-04-14T08:08:02.663Z,6.62
2019-04-14T08:08:35.973Z,6.62
2019-04-14T08:09:08.931Z,6.56
2019-04-14T08:09:42.281Z,6.56
2019-04-14T08:10:15.457Z,6.56
2019-04-14T08:10:48.577Z,6.56
2019-04-14T08:11:21.575Z,6.62
2019-04-14T08:11:54.591Z,6.62
2019-04-14T08:12:27.678Z,6.62
2019-04-14T08:13:00.811Z,6.62
2019-04-14T08:13:33.797Z,6.62
2019-04-14T08:14:06.702Z,6.56
2019-04-14T08:14:39.722Z,6.56
2019-04-14T08:15:13.157Z,6.56
2019-04-14T08:15:46.301Z,6.50
2019-04-14T08:16:19.311Z,6.50
2019-04-14T08:16:52.491Z,6.50
2019-04-14T08:17:25.618Z,6.50
2019-04-14T08:17:58.729Z,6.50
2019-04-14T08:18:31.733Z,6.44
2019-04-14T08:19:04.813Z,6.44
2019-04-14T08:19:37.759Z,6.50
2019-04-14T08:20:10.899Z,6.50
2019-04-14T08:20:43.789Z,6.44
2019-04-14T08:21:16.946Z,6.50
2019-04-14T08:21:50.971Z,6.50
2019-04-14T08:22:23.827Z,6.56
2019-04-14T08:22:57.905Z,6.62
2019-04-14T08:23:31.048Z,6.75
2019-04-14T08:24:04.197Z,6.87
2019-04-14T08:24:37.191Z,7.00
2019-04-14T08:25:10.210Z,7.12
2019-04-14T08:25:43.267Z,7.19
2019-04-14T08:26:16.181Z,7.31
2019-04-14T08:26:49.221Z,7.44
2019-04-14T08:27:22.281Z,7.62
2019-04-14T08:27:55.333Z,7.75
2019-04-14T08:28:28.464Z,7.87
2019-04-14T08:29:01.516Z,7.94
2019-04-14T08:29:34.547Z,8.06
2019-04-14T08:30:08.629Z,8.19
2019-04-14T08:30:41.541Z,8.31